sensor_id;sensor_type;location;lat;lon;timestamp;temperature;humidity
50512;DHT22;36446;47.642;-3.018;2022-09-14T00:02:15;22.40;99.90
50512;DHT22;36446;47.642;-3.018;2022-09-14T00:04:41;22.30;99.90
50512;DHT22;36446;47.642;-3.018;2022-09-14T00:07:07;22.30;99.90
50512;DHT22;36446;47.642;-3.018;2022-09-14T00:09:32;22.20;99.90
50512;DHT22;36446;47.642;-3.018;2022-09-14T00:11:58;22.20;99.90
50512;DHT22;36446;47.642;-3.018;2022-09-14T00:14:24;22.20;99.90
50512;DHT22;36446;47.642;-3.018;2022-09-14T00:16:49;22.20;99.90
50512;DHT22;36446;47.642;-3.018;2022-09-14T00:19:22;22.20;99.90
50512;DHT22;36446;47.642;-3.018;2022-09-14T00:21:50;22.20;99.90
50512;DHT22;36446;47.642;-3.018;2022-09-14T00:24:17;22.10;99.90
50512;DHT22;36446;47.642;-3.018;2022-09-14T00:26:43;22.10;99.90
50512;DHT22;36446;47.642;-3.018;2022-09-14T00:29:09;22.00;99.90
50512;DHT22;36446;47.642;-3.018;2022-09-14T00:31:37;22.00;99.90
50512;DHT22;36446;47.642;-3.018;2022-09-14T00:34:04;21.90;99.90
50512;DHT22;36446;47.642;-3.018;2022-09-14T00:36:31;21.90;99.90
50512;DHT22;36446;47.642;-3.018;2022-09-14T00:38:57;21.80;99.90
50512;DHT22;36446;47.642;-3.018;2022-09-14T00:41:31;21.80;99.90
50512;DHT22;36446;47.642;-3.018;2022-09-14T00:46:40;21.60;99.90
50512;DHT22;36446;47.642;-3.018;2022-09-14T00:49:32;21.70;99.90
50512;DHT22;36446;47.642;-3.018;2022-09-14T00:54:43;21.60;99.90
50512;DHT22;36446;47.642;-3.018;2022-09-14T00:57:10;21.60;99.90
50512;DHT22;36446;47.642;-3.018;2022-09-14T00:59:38;21.60;99.90
50512;DHT22;36446;47.642;-3.018;2022-09-14T01:02:06;21.60;99.90
50512;DHT22;36446;47.642;-3.018;2022-09-14T01:04:33;21.60;99.90
50512;DHT22;36446;47.642;-3.018;2022-09-14T01:15:26;21.60;99.90
50512;DHT22;36446;47.642;-3.018;2022-09-14T01:18:03;21.50;99.90
50512;DHT22;36446;47.642;-3.018;2022-09-14T01:21:01;21.50;99.90
50512;DHT22;36446;47.642;-3.018;2022-09-14T01:23:48;21.50;99.90
50512;DHT22;36446;47.642;-3.018;2022-09-14T01:29:56;21.50;99.90
50512;DHT22;36446;47.642;-3.018;2022-09-14T01:32:24;21.40;99.90
50512;DHT22;36446;47.642;-3.018;2022-09-14T01:35:13;21.40;99.90
50512;DHT22;36446;47.642;-3.018;2022-09-14T01:40:21;21.40;99.90
50512;DHT22;36446;47.642;-3.018;2022-09-14T01:42:53;21.40;99.90
50512;DHT22;36446;47.642;-3.018;2022-09-14T01:45:21;21.40;99.90
50512;DHT22;36446;47.642;-3.018;2022-09-14T01:47:57;21.50;99.90
50512;DHT22;36446;47.642;-3.018;2022-09-14T01:50:30;21.50;99.90
50512;DHT22;36446;47.642;-3.018;2022-09-14T01:55:48;21.50;99.90
50512;DHT22;36446;47.642;-3.018;2022-09-14T01:58:25;21.60;99.90
50512;DHT22;36446;47.642;-3.018;2022-09-14T02:00:56;21.60;99.90
50512;DHT22;36446;47.642;-3.018;2022-09-14T02:03:28;21.70;99.90
50512;DHT22;36446;47.642;-3.018;2022-09-14T02:05:58;21.80;99.90
50512;DHT22;36446;47.642;-3.018;2022-09-14T02:08:27;21.80;99.90
50512;DHT22;36446;47.642;-3.018;2022-09-14T02:10:54;21.90;99.90
50512;DHT22;36446;47.642;-3.018;2022-09-14T02:13:21;21.90;99.90
50512;DHT22;36446;47.642;-3.018;2022-09-14T02:15:47;22.00;99.90
50512;DHT22;36446;47.642;-3.018;2022-09-14T02:18:13;22.00;99.90
50512;DHT22;36446;47.642;-3.018;2022-09-14T02:20:49;22.00;99.90
50512;DHT22;36446;47.642;-3.018;2022-09-14T02:23:16;22.00;99.90
50512;DHT22;36446;47.642;-3.018;2022-09-14T02:25:44;22.00;99.90
50512;DHT22;36446;47.642;-3.018;2022-09-14T02:28:10;21.90;99.90
50512;DHT22;36446;47.642;-3.018;2022-09-14T02:30:53;21.90;99.90
50512;DHT22;36446;47.642;-3.018;2022-09-14T02:39:30;21.70;99.90
50512;DHT22;36446;47.642;-3.018;2022-09-14T02:42:13;21.70;99.90
50512;DHT22;36446;47.642;-3.018;2022-09-14T02:44:52;21.70;99.90
50512;DHT22;36446;47.642;-3.018;2022-09-14T02:47:38;21.70;99.90
50512;DHT22;36446;47.642;-3.018;2022-09-14T02:50:21;21.70;99.90
50512;DHT22;36446;47.642;-3.018;2022-09-14T02:53:00;21.80;99.90
50512;DHT22;36446;47.642;-3.018;2022-09-14T02:55:34;21.70;99.90
50512;DHT22;36446;47.642;-3.018;2022-09-14T03:00:29;21.80;99.90
50512;DHT22;36446;47.642;-3.018;2022-09-14T03:02:55;21.70;99.90
50512;DHT22;36446;47.642;-3.018;2022-09-14T03:05:21;21.70;99.90
50512;DHT22;36446;47.642;-3.018;2022-09-14T03:07:47;21.70;99.90
50512;DHT22;36446;47.642;-3.018;2022-09-14T03:10:13;21.60;99.90
50512;DHT22;36446;47.642;-3.018;2022-09-14T03:12:38;21.60;99.90
50512;DHT22;36446;47.642;-3.018;2022-09-14T03:15:05;21.50;99.90
50512;DHT22;36446;47.642;-3.018;2022-09-14T03:17:31;21.50;99.90
50512;DHT22;36446;47.642;-3.018;2022-09-14T03:19:57;21.40;99.90
50512;DHT22;36446;47.642;-3.018;2022-09-14T03:22:23;21.50;99.90
50512;DHT22;36446;47.642;-3.018;2022-09-14T03:24:48;21.40;99.90
50512;DHT22;36446;47.642;-3.018;2022-09-14T03:27:14;21.40;99.90
50512;DHT22;36446;47.642;-3.018;2022-09-14T03:29:39;21.40;99.90
50512;DHT22;36446;47.642;-3.018;2022-09-14T03:32:05;21.40;99.90
50512;DHT22;36446;47.642;-3.018;2022-09-14T03:34:31;21.40;99.90
50512;DHT22;36446;47.642;-3.018;2022-09-14T03:36:56;21.40;99.90
50512;DHT22;36446;47.642;-3.018;2022-09-14T03:39:22;21.40;99.90
50512;DHT22;36446;47.642;-3.018;2022-09-14T03:41:48;21.40;99.90
50512;DHT22;36446;47.642;-3.018;2022-09-14T03:44:14;21.50;99.90
50512;DHT22;36446;47.642;-3.018;2022-09-14T03:46:39;21.60;99.90
50512;DHT22;36446;47.642;-3.018;2022-09-14T03:49:05;21.60;99.90
50512;DHT22;36446;47.642;-3.018;2022-09-14T03:51:33;21.60;99.90
50512;DHT22;36446;47.642;-3.018;2022-09-14T03:53:58;21.50;99.90
50512;DHT22;36446;47.642;-3.018;2022-09-14T03:56:24;21.50;99.90
50512;DHT22;36446;47.642;-3.018;2022-09-14T03:58:50;21.50;99.90
50512;DHT22;36446;47.642;-3.018;2022-09-14T04:01:18;21.40;99.90
50512;DHT22;36446;47.642;-3.018;2022-09-14T04:03:44;21.40;99.90
50512;DHT22;36446;47.642;-3.018;2022-09-14T04:06:10;21.50;99.90
50512;DHT22;36446;47.642;-3.018;2022-09-14T04:08:38;21.50;99.90
50512;DHT22;36446;47.642;-3.018;2022-09-14T04:11:09;21.50;99.90
50512;DHT22;36446;47.642;-3.018;2022-09-14T04:13:36;21.50;99.90
50512;DHT22;36446;47.642;-3.018;2022-09-14T04:16:02;21.60;99.90
50512;DHT22;36446;47.642;-3.018;2022-09-14T04:18:28;21.60;99.90
50512;DHT22;36446;47.642;-3.018;2022-09-14T04:20:55;21.60;99.90
50512;DHT22;36446;47.642;-3.018;2022-09-14T04:23:21;21.60;99.90
50512;DHT22;36446;47.642;-3.018;2022-09-14T04:25:47;21.60;99.90
50512;DHT22;36446;47.642;-3.018;2022-09-14T04:28:13;21.60;99.90
50512;DHT22;36446;47.642;-3.018;2022-09-14T04:30:39;21.60;99.90
50512;DHT22;36446;47.642;-3.018;2022-09-14T04:33:04;21.60;99.90
50512;DHT22;36446;47.642;-3.018;2022-09-14T04:35:30;21.50;99.90
50512;DHT22;36446;47.642;-3.018;2022-09-14T04:37:55;21.60;99.90
50512;DHT22;36446;47.642;-3.018;2022-09-14T04:40:21;21.60;99.90
50512;DHT22;36446;47.642;-3.018;2022-09-14T04:42:47;21.60;99.90
50512;DHT22;36446;47.642;-3.018;2022-09-14T04:45:12;21.50;99.90
50512;DHT22;36446;47.642;-3.018;2022-09-14T04:47:38;21.50;99.90
50512;DHT22;36446;47.642;-3.018;2022-09-14T04:50:04;21.50;99.90
50512;DHT22;36446;47.642;-3.018;2022-09-14T04:52:30;21.50;99.90
50512;DHT22;36446;47.642;-3.018;2022-09-14T04:54:56;21.40;99.90
50512;DHT22;36446;47.642;-3.018;2022-09-14T04:57:21;21.40;99.90
50512;DHT22;36446;47.642;-3.018;2022-09-14T04:59:47;21.40;99.90
50512;DHT22;36446;47.642;-3.018;2022-09-14T05:02:13;21.30;99.90
50512;DHT22;36446;47.642;-3.018;2022-09-14T05:04:38;21.20;99.90
50512;DHT22;36446;47.642;-3.018;2022-09-14T05:07:04;21.20;99.90
50512;DHT22;36446;47.642;-3.018;2022-09-14T05:09:30;21.20;99.90
50512;DHT22;36446;47.642;-3.018;2022-09-14T05:11:55;21.20;99.90
50512;DHT22;36446;47.642;-3.018;2022-09-14T05:14:21;21.20;99.90
50512;DHT22;36446;47.642;-3.018;2022-09-14T05:16:47;21.20;99.90
50512;DHT22;36446;47.642;-3.018;2022-09-14T05:19:15;21.20;99.90
50512;DHT22;36446;47.642;-3.018;2022-09-14T05:21:42;21.20;99.90
50512;DHT22;36446;47.642;-3.018;2022-09-14T05:24:15;21.30;99.90
50512;DHT22;36446;47.642;-3.018;2022-09-14T05:26:42;21.30;99.90
50512;DHT22;36446;47.642;-3.018;2022-09-14T05:29:13;21.30;99.90
50512;DHT22;36446;47.642;-3.018;2022-09-14T05:31:40;21.30;99.90
50512;DHT22;36446;47.642;-3.018;2022-09-14T05:34:05;21.30;99.90
50512;DHT22;36446;47.642;-3.018;2022-09-14T05:36:31;21.30;99.90
50512;DHT22;36446;47.642;-3.018;2022-09-14T05:38:57;21.20;99.90
50512;DHT22;36446;47.642;-3.018;2022-09-14T05:41:23;21.20;99.90
50512;DHT22;36446;47.642;-3.018;2022-09-14T05:43:48;21.10;99.90
50512;DHT22;36446;47.642;-3.018;2022-09-14T05:46:17;21.10;99.90
50512;DHT22;36446;47.642;-3.018;2022-09-14T05:48:47;21.10;99.90
50512;DHT22;36446;47.642;-3.018;2022-09-14T05:51:17;21.10;99.90
50512;DHT22;36446;47.642;-3.018;2022-09-14T05:53:52;21.10;99.90
50512;DHT22;36446;47.642;-3.018;2022-09-14T05:56:19;21.10;99.90
50512;DHT22;36446;47.642;-3.018;2022-09-14T05:58:45;21.00;99.90
50512;DHT22;36446;47.642;-3.018;2022-09-14T06:01:15;21.00;99.90
50512;DHT22;36446;47.642;-3.018;2022-09-14T06:03:42;21.00;99.90
50512;DHT22;36446;47.642;-3.018;2022-09-14T06:06:11;21.10;99.90
50512;DHT22;36446;47.642;-3.018;2022-09-14T06:08:37;21.20;99.90
50512;DHT22;36446;47.642;-3.018;2022-09-14T06:11:09;21.20;99.90
50512;DHT22;36446;47.642;-3.018;2022-09-14T06:13:35;21.20;99.90
50512;DHT22;36446;47.642;-3.018;2022-09-14T06:18:30;21.20;99.90
50512;DHT22;36446;47.642;-3.018;2022-09-14T06:20:56;21.20;99.90
50512;DHT22;36446;47.642;-3.018;2022-09-14T06:23:21;21.20;99.90
50512;DHT22;36446;47.642;-3.018;2022-09-14T06:25:47;21.20;99.90
50512;DHT22;36446;47.642;-3.018;2022-09-14T06:28:13;21.20;99.90
50512;DHT22;36446;47.642;-3.018;2022-09-14T06:30:43;21.10;99.90
50512;DHT22;36446;47.642;-3.018;2022-09-14T06:33:09;21.10;99.90
50512;DHT22;36446;47.642;-3.018;2022-09-14T06:35:34;21.10;99.90
50512;DHT22;36446;47.642;-3.018;2022-09-14T06:38:00;21.10;99.90
50512;DHT22;36446;47.642;-3.018;2022-09-14T06:40:25;21.10;99.90
50512;DHT22;36446;47.642;-3.018;2022-09-14T06:42:52;21.10;99.90
50512;DHT22;36446;47.642;-3.018;2022-09-14T06:45:18;21.10;99.90
50512;DHT22;36446;47.642;-3.018;2022-09-14T06:47:44;21.10;99.90
50512;DHT22;36446;47.642;-3.018;2022-09-14T06:50:09;21.10;99.90
50512;DHT22;36446;47.642;-3.018;2022-09-14T06:52:35;21.10;99.90
50512;DHT22;36446;47.642;-3.018;2022-09-14T06:55:01;21.10;99.90
50512;DHT22;36446;47.642;-3.018;2022-09-14T06:57:27;21.10;99.90
50512;DHT22;36446;47.642;-3.018;2022-09-14T06:59:53;21.10;99.90
50512;DHT22;36446;47.642;-3.018;2022-09-14T07:02:18;21.10;99.90
50512;DHT22;36446;47.642;-3.018;2022-09-14T07:04:44;21.00;99.90
50512;DHT22;36446;47.642;-3.018;2022-09-14T07:07:10;20.90;99.90
50512;DHT22;36446;47.642;-3.018;2022-09-14T07:09:38;20.80;99.90
50512;DHT22;36446;47.642;-3.018;2022-09-14T07:12:04;20.80;99.90
50512;DHT22;36446;47.642;-3.018;2022-09-14T07:14:30;20.90;99.90
50512;DHT22;36446;47.642;-3.018;2022-09-14T07:16:56;20.90;99.90
50512;DHT22;36446;47.642;-3.018;2022-09-14T07:19:21;20.90;99.90
50512;DHT22;36446;47.642;-3.018;2022-09-14T07:21:47;20.90;99.90
50512;DHT22;36446;47.642;-3.018;2022-09-14T07:24:14;20.90;99.90
50512;DHT22;36446;47.642;-3.018;2022-09-14T07:26:40;21.00;99.90
50512;DHT22;36446;47.642;-3.018;2022-09-14T07:29:10;21.10;99.90
50512;DHT22;36446;47.642;-3.018;2022-09-14T07:31:40;21.20;99.90
50512;DHT22;36446;47.642;-3.018;2022-09-14T07:34:06;21.20;99.90
50512;DHT22;36446;47.642;-3.018;2022-09-14T07:36:35;21.20;99.90
50512;DHT22;36446;47.642;-3.018;2022-09-14T07:39:02;21.20;99.90
50512;DHT22;36446;47.642;-3.018;2022-09-14T07:41:29;21.20;99.90
50512;DHT22;36446;47.642;-3.018;2022-09-14T07:43:57;21.20;99.90
50512;DHT22;36446;47.642;-3.018;2022-09-14T07:46:28;21.20;99.90
50512;DHT22;36446;47.642;-3.018;2022-09-14T07:48:56;21.20;99.90
50512;DHT22;36446;47.642;-3.018;2022-09-14T07:51:23;21.00;99.90
50512;DHT22;36446;47.642;-3.018;2022-09-14T07:53:49;21.00;99.90
50512;DHT22;36446;47.642;-3.018;2022-09-14T07:56:15;21.00;99.90
50512;DHT22;36446;47.642;-3.018;2022-09-14T07:58:41;20.90;99.90
50512;DHT22;36446;47.642;-3.018;2022-09-14T08:01:10;21.00;99.90
50512;DHT22;36446;47.642;-3.018;2022-09-14T08:03:40;21.10;99.90
50512;DHT22;36446;47.642;-3.018;2022-09-14T08:06:18;21.10;99.90
50512;DHT22;36446;47.642;-3.018;2022-09-14T08:08:46;21.20;99.90
50512;DHT22;36446;47.642;-3.018;2022-09-14T08:11:21;21.20;99.90
50512;DHT22;36446;47.642;-3.018;2022-09-14T08:13:52;21.30;99.90
50512;DHT22;36446;47.642;-3.018;2022-09-14T08:16:19;21.30;99.90
50512;DHT22;36446;47.642;-3.018;2022-09-14T08:18:45;21.20;99.90
50512;DHT22;36446;47.642;-3.018;2022-09-14T08:21:13;21.10;99.90
50512;DHT22;36446;47.642;-3.018;2022-09-14T08:23:40;20.90;99.90
50512;DHT22;36446;47.642;-3.018;2022-09-14T08:26:18;20.70;99.90
50512;DHT22;36446;47.642;-3.018;2022-09-14T08:28:45;20.60;99.90
50512;DHT22;36446;47.642;-3.018;2022-09-14T08:31:14;20.60;99.90
50512;DHT22;36446;47.642;-3.018;2022-09-14T08:33:42;20.60;99.90
50512;DHT22;36446;47.642;-3.018;2022-09-14T08:36:11;20.50;99.90
50512;DHT22;36446;47.642;-3.018;2022-09-14T08:38:37;20.50;99.90
50512;DHT22;36446;47.642;-3.018;2022-09-14T08:41:32;20.40;99.90
50512;DHT22;36446;47.642;-3.018;2022-09-14T08:44:04;20.30;99.90
50512;DHT22;36446;47.642;-3.018;2022-09-14T08:46:39;20.20;99.90
50512;DHT22;36446;47.642;-3.018;2022-09-14T08:49:12;20.20;99.90
50512;DHT22;36446;47.642;-3.018;2022-09-14T08:51:41;20.30;99.90
50512;DHT22;36446;47.642;-3.018;2022-09-14T08:54:08;20.20;99.90
50512;DHT22;36446;47.642;-3.018;2022-09-14T08:56:41;20.30;99.90
50512;DHT22;36446;47.642;-3.018;2022-09-14T08:59:27;20.30;99.90
50512;DHT22;36446;47.642;-3.018;2022-09-14T09:04:38;20.50;99.90
50512;DHT22;36446;47.642;-3.018;2022-09-14T09:07:43;20.70;99.90
50512;DHT22;36446;47.642;-3.018;2022-09-14T09:10:09;20.70;99.90
50512;DHT22;36446;47.642;-3.018;2022-09-14T09:12:39;20.80;99.90
50512;DHT22;36446;47.642;-3.018;2022-09-14T09:15:31;20.70;99.90
50512;DHT22;36446;47.642;-3.018;2022-09-14T09:18:05;20.80;99.90
50512;DHT22;36446;47.642;-3.018;2022-09-14T09:20:34;20.90;99.90
50512;DHT22;36446;47.642;-3.018;2022-09-14T09:23:18;21.00;99.90
50512;DHT22;36446;47.642;-3.018;2022-09-14T09:26:03;21.00;99.90
50512;DHT22;36446;47.642;-3.018;2022-09-14T09:28:30;21.10;99.90
50512;DHT22;36446;47.642;-3.018;2022-09-14T09:31:02;21.10;99.90
50512;DHT22;36446;47.642;-3.018;2022-09-14T09:33:30;21.10;99.90
50512;DHT22;36446;47.642;-3.018;2022-09-14T09:35:56;21.00;99.90
50512;DHT22;36446;47.642;-3.018;2022-09-14T09:38:24;21.00;99.90
50512;DHT22;36446;47.642;-3.018;2022-09-14T09:41:11;20.80;99.90
50512;DHT22;36446;47.642;-3.018;2022-09-14T09:44:00;20.80;99.90
50512;DHT22;36446;47.642;-3.018;2022-09-14T09:46:28;20.70;99.90
50512;DHT22;36446;47.642;-3.018;2022-09-14T09:48:55;20.70;99.90
50512;DHT22;36446;47.642;-3.018;2022-09-14T09:56:36;20.70;99.90
50512;DHT22;36446;47.642;-3.018;2022-09-14T10:01:55;20.90;99.90
50512;DHT22;36446;47.642;-3.018;2022-09-14T10:04:25;20.90;99.90
50512;DHT22;36446;47.642;-3.018;2022-09-14T10:06:54;20.90;99.90
50512;DHT22;36446;47.642;-3.018;2022-09-14T10:09:26;20.90;99.90
50512;DHT22;36446;47.642;-3.018;2022-09-14T10:12:01;20.90;99.90
50512;DHT22;36446;47.642;-3.018;2022-09-14T10:14:33;20.90;99.90
50512;DHT22;36446;47.642;-3.018;2022-09-14T10:17:21;20.90;99.90
50512;DHT22;36446;47.642;-3.018;2022-09-14T10:19:48;21.00;99.90
50512;DHT22;36446;47.642;-3.018;2022-09-14T10:27:47;21.20;99.90
50512;DHT22;36446;47.642;-3.018;2022-09-14T10:30:16;21.30;99.90
50512;DHT22;36446;47.642;-3.018;2022-09-14T10:32:57;21.30;99.90
50512;DHT22;36446;47.642;-3.018;2022-09-14T10:35:34;21.40;99.90
50512;DHT22;36446;47.642;-3.018;2022-09-14T10:40:41;21.20;99.90
50512;DHT22;36446;47.642;-3.018;2022-09-14T10:45:59;21.20;99.90
50512;DHT22;36446;47.642;-3.018;2022-09-14T10:48:44;21.30;99.90
50512;DHT22;36446;47.642;-3.018;2022-09-14T10:51:24;21.40;99.90
50512;DHT22;36446;47.642;-3.018;2022-09-14T10:54:04;21.40;99.90
50512;DHT22;36446;47.642;-3.018;2022-09-14T11:02:46;21.60;99.90
50512;DHT22;36446;47.642;-3.018;2022-09-14T11:27:46;22.00;99.90
50512;DHT22;36446;47.642;-3.018;2022-09-14T11:30:17;21.90;99.90
50512;DHT22;36446;47.642;-3.018;2022-09-14T11:32:58;22.00;99.90
50512;DHT22;36446;47.642;-3.018;2022-09-14T11:35:41;22.00;99.90
50512;DHT22;36446;47.642;-3.018;2022-09-14T11:41:10;22.00;99.90
50512;DHT22;36446;47.642;-3.018;2022-09-14T11:46:33;22.00;99.90
50512;DHT22;36446;47.642;-3.018;2022-09-14T11:51:28;22.10;99.90
50512;DHT22;36446;47.642;-3.018;2022-09-14T11:53:56;22.10;99.90
50512;DHT22;36446;47.642;-3.018;2022-09-14T11:58:53;21.90;99.90
50512;DHT22;36446;47.642;-3.018;2022-09-14T12:01:30;21.90;99.90
50512;DHT22;36446;47.642;-3.018;2022-09-14T12:06:48;21.70;99.90
50512;DHT22;36446;47.642;-3.018;2022-09-14T12:11:52;21.70;99.90
50512;DHT22;36446;47.642;-3.018;2022-09-14T12:19:36;21.30;99.90
50512;DHT22;36446;47.642;-3.018;2022-09-14T12:22:36;21.30;99.90
50512;DHT22;36446;47.642;-3.018;2022-09-14T12:27:38;21.20;99.90
50512;DHT22;36446;47.642;-3.018;2022-09-14T12:41:58;21.20;99.90
50512;DHT22;36446;47.642;-3.018;2022-09-14T12:44:37;21.10;99.90
50512;DHT22;36446;47.642;-3.018;2022-09-14T12:49:54;21.10;99.90
50512;DHT22;36446;47.642;-3.018;2022-09-14T12:57:48;21.30;99.90
50512;DHT22;36446;47.642;-3.018;2022-09-14T13:00:17;21.20;99.90
50512;DHT22;36446;47.642;-3.018;2022-09-14T13:05:42;21.40;99.90
50512;DHT22;36446;47.642;-3.018;2022-09-14T13:08:11;21.50;99.90
50512;DHT22;36446;47.642;-3.018;2022-09-14T13:10:44;21.50;99.90
50512;DHT22;36446;47.642;-3.018;2022-09-14T13:13:20;21.60;99.90
50512;DHT22;36446;47.642;-3.018;2022-09-14T13:16:05;21.60;99.90
50512;DHT22;36446;47.642;-3.018;2022-09-14T13:18:34;21.60;99.90
50512;DHT22;36446;47.642;-3.018;2022-09-14T13:21:21;21.50;99.90
50512;DHT22;36446;47.642;-3.018;2022-09-14T13:23:49;21.40;99.90
50512;DHT22;36446;47.642;-3.018;2022-09-14T13:26:20;21.30;99.90
50512;DHT22;36446;47.642;-3.018;2022-09-14T13:28:48;21.30;99.90
50512;DHT22;36446;47.642;-3.018;2022-09-14T13:31:24;21.30;99.90
50512;DHT22;36446;47.642;-3.018;2022-09-14T13:33:52;21.20;99.90
50512;DHT22;36446;47.642;-3.018;2022-09-14T13:36:22;21.20;99.90
50512;DHT22;36446;47.642;-3.018;2022-09-14T13:38:49;21.20;99.90
50512;DHT22;36446;47.642;-3.018;2022-09-14T13:41:17;21.10;99.90
50512;DHT22;36446;47.642;-3.018;2022-09-14T13:43:44;21.10;99.90
50512;DHT22;36446;47.642;-3.018;2022-09-14T13:46:12;21.20;99.90
50512;DHT22;36446;47.642;-3.018;2022-09-14T13:48:40;21.20;99.90
50512;DHT22;36446;47.642;-3.018;2022-09-14T13:51:07;21.30;99.90
50512;DHT22;36446;47.642;-3.018;2022-09-14T13:53:46;21.40;99.90
50512;DHT22;36446;47.642;-3.018;2022-09-14T14:01:50;21.70;99.90
50512;DHT22;36446;47.642;-3.018;2022-09-14T14:04:27;21.70;99.90
50512;DHT22;36446;47.642;-3.018;2022-09-14T14:09:49;21.70;99.90
50512;DHT22;36446;47.642;-3.018;2022-09-14T14:12:36;21.80;99.90
50512;DHT22;36446;47.642;-3.018;2022-09-14T14:17:37;21.80;99.90
50512;DHT22;36446;47.642;-3.018;2022-09-14T14:25:37;21.90;99.90
50512;DHT22;36446;47.642;-3.018;2022-09-14T14:28:13;21.90;99.90
50512;DHT22;36446;47.642;-3.018;2022-09-14T14:30:40;21.90;99.90
50512;DHT22;36446;47.642;-3.018;2022-09-14T14:33:14;21.80;99.90
50512;DHT22;36446;47.642;-3.018;2022-09-14T14:35:40;21.70;99.90
50512;DHT22;36446;47.642;-3.018;2022-09-14T14:38:06;21.60;99.90
50512;DHT22;36446;47.642;-3.018;2022-09-14T14:40:32;21.70;99.90
50512;DHT22;36446;47.642;-3.018;2022-09-14T14:43:00;21.60;99.90
50512;DHT22;36446;47.642;-3.018;2022-09-14T14:45:28;21.70;99.90
50512;DHT22;36446;47.642;-3.018;2022-09-14T14:47:56;21.70;99.90
50512;DHT22;36446;47.642;-3.018;2022-09-14T14:50:24;21.60;99.90
50512;DHT22;36446;47.642;-3.018;2022-09-14T14:52:51;21.50;99.90
50512;DHT22;36446;47.642;-3.018;2022-09-14T14:55:17;21.50;99.90
50512;DHT22;36446;47.642;-3.018;2022-09-14T14:57:44;21.50;99.90
50512;DHT22;36446;47.642;-3.018;2022-09-14T15:00:19;21.40;99.90
50512;DHT22;36446;47.642;-3.018;2022-09-14T15:02:45;21.40;99.90
50512;DHT22;36446;47.642;-3.018;2022-09-14T15:05:11;21.30;99.90
50512;DHT22;36446;47.642;-3.018;2022-09-14T15:07:37;21.30;99.90
50512;DHT22;36446;47.642;-3.018;2022-09-14T15:10:05;21.40;99.90
50512;DHT22;36446;47.642;-3.018;2022-09-14T15:12:31;21.40;99.90
50512;DHT22;36446;47.642;-3.018;2022-09-14T15:14:57;21.40;99.90
50512;DHT22;36446;47.642;-3.018;2022-09-14T15:17:23;21.30;99.90
50512;DHT22;36446;47.642;-3.018;2022-09-14T15:19:49;21.30;99.90
50512;DHT22;36446;47.642;-3.018;2022-09-14T15:22:14;21.30;99.90
50512;DHT22;36446;47.642;-3.018;2022-09-14T15:24:40;21.40;99.90
50512;DHT22;36446;47.642;-3.018;2022-09-14T15:27:06;21.40;99.90
50512;DHT22;36446;47.642;-3.018;2022-09-14T15:29:32;21.40;99.90
50512;DHT22;36446;47.642;-3.018;2022-09-14T15:31:57;21.50;99.90
50512;DHT22;36446;47.642;-3.018;2022-09-14T15:34:23;21.40;99.90
50512;DHT22;36446;47.642;-3.018;2022-09-14T15:36:51;21.40;99.90
50512;DHT22;36446;47.642;-3.018;2022-09-14T15:39:26;21.50;99.90
50512;DHT22;36446;47.642;-3.018;2022-09-14T15:41:52;21.50;99.90
50512;DHT22;36446;47.642;-3.018;2022-09-14T15:44:18;21.60;99.90
50512;DHT22;36446;47.642;-3.018;2022-09-14T15:46:44;21.50;99.90
50512;DHT22;36446;47.642;-3.018;2022-09-14T15:49:13;21.50;99.90
50512;DHT22;36446;47.642;-3.018;2022-09-14T15:51:44;21.40;99.90
50512;DHT22;36446;47.642;-3.018;2022-09-14T15:54:10;21.40;99.90
50512;DHT22;36446;47.642;-3.018;2022-09-14T15:56:36;21.40;99.90
50512;DHT22;36446;47.642;-3.018;2022-09-14T15:59:03;21.40;99.90
50512;DHT22;36446;47.642;-3.018;2022-09-14T16:01:29;21.40;99.90
50512;DHT22;36446;47.642;-3.018;2022-09-14T16:04:03;21.50;99.90
50512;DHT22;36446;47.642;-3.018;2022-09-14T16:06:29;21.70;99.90
50512;DHT22;36446;47.642;-3.018;2022-09-14T16:08:56;21.80;99.90
50512;DHT22;36446;47.642;-3.018;2022-09-14T16:11:23;21.80;99.90
50512;DHT22;36446;47.642;-3.018;2022-09-14T16:13:49;21.60;99.90
50512;DHT22;36446;47.642;-3.018;2022-09-14T16:16:16;21.60;99.90
50512;DHT22;36446;47.642;-3.018;2022-09-14T16:18:42;21.50;99.90
50512;DHT22;36446;47.642;-3.018;2022-09-14T16:21:20;21.50;99.90
50512;DHT22;36446;47.642;-3.018;2022-09-14T16:23:49;21.50;99.90
50512;DHT22;36446;47.642;-3.018;2022-09-14T16:26:19;21.50;99.90
50512;DHT22;36446;47.642;-3.018;2022-09-14T16:28:46;21.50;99.90
50512;DHT22;36446;47.642;-3.018;2022-09-14T16:31:42;21.40;99.90
50512;DHT22;36446;47.642;-3.018;2022-09-14T16:34:14;21.40;99.90
50512;DHT22;36446;47.642;-3.018;2022-09-14T16:36:41;21.40;99.90
50512;DHT22;36446;47.642;-3.018;2022-09-14T16:39:10;21.40;99.90
50512;DHT22;36446;47.642;-3.018;2022-09-14T16:41:36;21.60;99.90
50512;DHT22;36446;47.642;-3.018;2022-09-14T16:44:04;21.70;99.90
50512;DHT22;36446;47.642;-3.018;2022-09-14T16:46:31;21.80;99.90
50512;DHT22;36446;47.642;-3.018;2022-09-14T16:48:58;21.80;99.90
50512;DHT22;36446;47.642;-3.018;2022-09-14T16:51:25;21.80;99.90
50512;DHT22;36446;47.642;-3.018;2022-09-14T16:53:52;21.80;99.90
50512;DHT22;36446;47.642;-3.018;2022-09-14T16:56:19;21.90;99.90
50512;DHT22;36446;47.642;-3.018;2022-09-14T16:58:46;21.90;99.90
50512;DHT22;36446;47.642;-3.018;2022-09-14T17:01:18;21.90;99.90
50512;DHT22;36446;47.642;-3.018;2022-09-14T17:03:47;22.00;99.90
50512;DHT22;36446;47.642;-3.018;2022-09-14T17:06:19;22.10;99.90
50512;DHT22;36446;47.642;-3.018;2022-09-14T17:08:46;22.10;99.90
50512;DHT22;36446;47.642;-3.018;2022-09-14T17:11:13;22.10;99.90
50512;DHT22;36446;47.642;-3.018;2022-09-14T17:13:39;22.20;99.90
50512;DHT22;36446;47.642;-3.018;2022-09-14T17:16:17;22.20;99.90
50512;DHT22;36446;47.642;-3.018;2022-09-14T17:18:45;22.10;99.90
50512;DHT22;36446;47.642;-3.018;2022-09-14T17:21:16;21.80;99.90
50512;DHT22;36446;47.642;-3.018;2022-09-14T17:23:42;21.60;99.90
50512;DHT22;36446;47.642;-3.018;2022-09-14T17:26:10;21.50;99.90
50512;DHT22;36446;47.642;-3.018;2022-09-14T17:28:37;21.40;99.90
50512;DHT22;36446;47.642;-3.018;2022-09-14T17:31:06;21.30;99.90
50512;DHT22;36446;47.642;-3.018;2022-09-14T17:33:32;21.30;99.90
50512;DHT22;36446;47.642;-3.018;2022-09-14T17:36:00;21.30;99.90
50512;DHT22;36446;47.642;-3.018;2022-09-14T17:38:27;21.20;99.90
50512;DHT22;36446;47.642;-3.018;2022-09-14T17:41:12;21.10;99.90
50512;DHT22;36446;47.642;-3.018;2022-09-14T17:43:39;21.10;99.90
50512;DHT22;36446;47.642;-3.018;2022-09-14T17:46:08;21.00;99.90
50512;DHT22;36446;47.642;-3.018;2022-09-14T17:48:37;20.90;99.90
50512;DHT22;36446;47.642;-3.018;2022-09-14T17:51:15;20.90;99.90
50512;DHT22;36446;47.642;-3.018;2022-09-14T17:53:44;20.90;99.90
50512;DHT22;36446;47.642;-3.018;2022-09-14T17:56:12;21.00;99.90
50512;DHT22;36446;47.642;-3.018;2022-09-14T17:58:39;21.00;99.90